Time;durP1;ratioP1;P1;durP2;ratioP2;P2;SDS_P1;SDS_P2;PMS_P1;PMS_P2;Temp;Humidity;BMP_temperature;BMP_pressure;BME280_temperature;BME280_humidity;BME280_pressure;Samples;Min_cycle;Max_cycle;Signal;HPM_P1;HPM_P2
2023/01/04 00:00:04;;;;;;;5.00;4.30;;;9.90;99.90;;;;;;5016833;28;20198;-67
2023/01/04 00:02:30;;;;;;;7.00;5.07;;;9.90;99.90;;;;;;5013678;28;20411;-68
2023/01/04 00:04:55;;;;;;;5.90;4.67;;;9.90;99.90;;;;;;5017637;28;20465;-68
2023/01/04 00:07:21;;;;;;;6.17;5.07;;;9.90;99.90;;;;;;5009558;28;20310;-68
2023/01/04 00:09:47;;;;;;;7.40;5.17;;;9.90;99.90;;;;;;5016938;28;20216;-67
2023/01/04 00:12:12;;;;;;;8.50;5.17;;;9.90;99.90;;;;;;5007529;28;20193;-68
2023/01/04 00:14:38;;;;;;;6.00;5.10;;;9.90;99.90;;;;;;5019837;28;20195;-68
2023/01/04 00:17:04;;;;;;;7.90;5.20;;;9.90;99.90;;;;;;5019266;28;20288;-68
2023/01/04 00:19:29;;;;;;;11.03;6.63;;;9.90;99.90;;;;;;5019292;28;20185;-68
2023/01/04 00:21:55;;;;;;;7.37;5.17;;;9.80;99.90;;;;;;5021914;28;20675;-68
2023/01/04 00:24:21;;;;;;;7.80;5.30;;;9.70;99.90;;;;;;5025448;28;21323;-68
2023/01/04 00:26:46;;;;;;;6.77;5.70;;;9.70;99.90;;;;;;5018083;28;20879;-68
2023/01/04 00:29:12;;;;;;;5.83;5.17;;;9.80;99.90;;;;;;5020367;28;20258;-68
2023/01/04 00:31:38;;;;;;;5.77;5.17;;;9.80;99.90;;;;;;5019817;28;20192;-68
2023/01/04 00:34:05;;;;;;;6.13;5.40;;;9.80;99.90;;;;;;5023607;28;21052;-68
2023/01/04 00:36:32;;;;;;;7.30;6.07;;;9.60;99.90;;;;;;5020224;28;20850;-68
2023/01/04 00:39:13;;;;;;;8.97;6.13;;;9.60;99.90;;;;;;5015699;28;21074;-68
2023/01/04 00:41:47;;;;;;;7.00;5.33;;;9.50;99.90;;;;;;5016382;28;20436;-68
2023/01/04 00:44:14;;;;;;;7.63;6.17;;;9.50;99.90;;;;;;5020605;28;20455;-68
2023/01/04 00:46:40;;;;;;;7.43;5.80;;;9.20;99.90;;;;;;5018456;28;20495;-68
2023/01/04 00:49:08;;;;;;;7.60;5.87;;;9.20;99.90;;;;;;5014522;28;20435;-68
2023/01/04 00:51:35;;;;;;;8.57;6.60;;;9.20;99.90;;;;;;5020470;28;20481;-69
2023/01/04 00:54:02;;;;;;;5.47;4.97;;;9.20;99.90;;;;;;5015078;28;20428;-68
2023/01/04 00:56:30;;;;;;;8.10;6.13;;;9.20;99.90;;;;;;5011966;28;20466;-68
2023/01/04 00:58:58;;;;;;;8.63;6.53;;;9.10;99.90;;;;;;5016670;28;20819;-68
2023/01/04 01:01:25;;;;;;;6.47;5.63;;;9.10;99.90;;;;;;5019535;28;20821;-69
2023/01/04 01:03:55;;;;;;;6.50;5.77;;;9.00;99.90;;;;;;5019860;28;20469;-68
2023/01/04 01:06:21;;;;;;;7.53;6.10;;;9.00;99.90;;;;;;5019820;28;20463;-68
2023/01/04 01:08:47;;;;;;;8.30;6.20;;;8.90;99.90;;;;;;5012100;28;20435;-68
2023/01/04 01:11:13;;;;;;;6.77;6.07;;;8.80;99.90;;;;;;5012809;28;20810;-68
2023/01/04 01:13:39;;;;;;;6.70;6.00;;;8.80;99.90;;;;;;5010089;28;20444;-68
2023/01/04 01:16:11;;;;;;;9.97;6.90;;;8.80;99.90;;;;;;5007124;28;20241;-67
2023/01/04 01:18:38;;;;;;;8.97;6.77;;;8.70;99.90;;;;;;5012328;28;20526;-68
2023/01/04 01:21:15;;;;;;;7.23;5.97;;;8.70;99.90;;;;;;5016785;28;20481;-67
2023/01/04 01:23:42;;;;;;;7.73;6.50;;;8.60;99.90;;;;;;5017009;28;20735;-67
2023/01/04 01:26:11;;;;;;;7.00;6.30;;;8.70;99.90;;;;;;5014979;28;20960;-68
2023/01/04 01:28:37;;;;;;;9.33;6.87;;;8.60;99.90;;;;;;5014981;28;21141;-67
2023/01/04 01:31:11;;;;;;;9.37;6.60;;;8.60;99.90;;;;;;5017192;28;20436;-68
2023/01/04 01:33:41;;;;;;;10.47;6.60;;;8.60;99.90;;;;;;5013487;28;20442;-67
2023/01/04 01:36:08;;;;;;;10.83;6.77;;;8.60;99.90;;;;;;5018663;28;20541;-68
2023/01/04 01:38:34;;;;;;;7.70;6.80;;;8.70;99.90;;;;;;5013380;28;20451;-67
2023/01/04 01:41:00;;;;;;;13.27;6.17;;;8.60;99.90;;;;;;5018084;28;20440;-68
2023/01/04 01:43:44;;;;;;;9.67;6.77;;;8.70;99.90;;;;;;5018238;28;20871;-68
2023/01/04 01:46:10;;;;;;;7.67;6.40;;;8.60;99.90;;;;;;5012978;28;21048;-68
2023/01/04 01:48:37;;;;;;;8.40;6.80;;;8.60;99.90;;;;;;5017154;28;20454;-67
2023/01/04 01:51:03;;;;;;;9.00;8.17;;;8.60;99.90;;;;;;5013945;28;20449;-67
2023/01/04 01:53:34;;;;;;;8.50;6.63;;;8.60;99.90;;;;;;5016212;28;20475;-67
2023/01/04 01:56:02;;;;;;;8.10;6.20;;;8.50;99.90;;;;;;5015056;28;20467;-68
2023/01/04 01:58:36;;;;;;;7.00;6.00;;;8.60;99.90;;;;;;5016265;28;20431;-68
2023/01/04 02:01:02;;;;;;;8.13;6.43;;;8.60;99.90;;;;;;5018980;28;20524;-68
2023/01/04 02:03:40;;;;;;;9.00;7.00;;;8.70;99.90;;;;;;5018067;28;20469;-68
2023/01/04 02:06:12;;;;;;;7.30;6.40;;;8.70;99.90;;;;;;5012192;28;20895;-68
2023/01/04 02:08:40;;;;;;;9.70;5.70;;;8.70;99.90;;;;;;5014170;28;20477;-68
2023/01/04 02:11:06;;;;;;;9.13;6.20;;;8.70;99.90;;;;;;5017112;28;20443;-68
2023/01/04 02:16:31;;;;;;;8.70;6.33;;;8.60;99.90;;;;;;5014188;28;20599;-69
2023/01/04 02:19:27;;;;;;;7.93;6.30;;;8.60;99.90;;;;;;5018033;28;20489;-68
2023/01/04 02:22:20;;;;;;;11.60;6.40;;;8.50;99.90;;;;;;5013428;28;20439;-68
2023/01/04 02:24:48;;;;;;;8.07;6.70;;;8.50;99.90;;;;;;5016675;28;20462;-67
2023/01/04 02:27:27;;;;;;;8.03;7.20;;;8.50;99.90;;;;;;5018664;28;20447;-68
2023/01/04 02:30:33;;;;;;;10.30;8.37;;;8.50;99.90;;;;;;5016004;28;20427;-71
2023/01/04 02:33:05;;;;;;;9.00;7.47;;;8.30;99.90;;;;;;5013928;28;20858;-68
2023/01/04 02:36:09;;;;;;;9.17;8.07;;;8.20;99.90;;;;;;5010062;28;20451;-68
2023/01/04 02:38:54;;;;;;;17.57;8.90;;;8.20;99.90;;;;;;5019397;28;20528;-68
2023/01/04 02:41:41;;;;;;;10.80;9.53;;;8.20;99.90;;;;;;5021622;28;21288;-68
2023/01/04 02:47:09;;;;;;;14.40;11.10;;;8.20;99.90;;;;;;5017050;28;20475;-68
2023/01/04 02:52:21;;;;;;;13.27;10.20;;;8.10;99.90;;;;;;5014195;28;20422;-68
2023/01/04 02:54:49;;;;;;;14.20;10.67;;;8.10;99.90;;;;;;5015600;28;21132;-67
2023/01/04 02:57:24;;;;;;;15.40;11.23;;;8.10;99.90;;;;;;5012171;28;20848;-68
2023/01/04 03:00:12;;;;;;;15.07;11.33;;;8.20;99.90;;;;;;5015580;28;20434;-67
2023/01/04 03:06:16;;;;;;;16.23;12.33;;;7.90;99.90;;;;;;5016930;28;21210;-67
2023/01/04 03:08:52;;;;;;;19.07;13.60;;;7.90;99.90;;;;;;5012181;28;20416;-67
2023/01/04 03:14:15;;;;;;;19.23;13.37;;;7.70;99.90;;;;;;5013829;28;20470;-67
2023/01/04 03:16:43;;;;;;;17.03;13.10;;;7.80;99.90;;;;;;5014442;28;20477;-68
2023/01/04 03:19:11;;;;;;;20.57;13.40;;;7.70;99.90;;;;;;5014813;28;20419;-68
2023/01/04 03:21:43;;;;;;;20.93;13.90;;;7.70;99.90;;;;;;5016147;28;20525;-68
2023/01/04 03:35:48;;;;;;;24.33;15.63;;;7.70;99.90;;;;;;5017969;28;20433;-69
2023/01/04 03:50:21;;;;;;;20.77;13.20;;;7.70;99.90;;;;;;5015496;28;20528;-68
2023/01/04 03:52:49;;;;;;;19.53;14.70;;;7.60;99.90;;;;;;5017278;28;20435;-68
2023/01/04 03:55:16;;;;;;;20.27;13.33;;;7.50;99.90;;;;;;5012239;28;20905;-68
2023/01/04 03:57:42;;;;;;;14.63;11.47;;;7.60;99.90;;;;;;5011726;28;20468;-68
2023/01/04 04:00:14;;;;;;;17.37;11.80;;;7.60;99.90;;;;;;5018674;28;20466;-68
2023/01/04 04:02:41;;;;;;;17.47;12.43;;;7.80;99.90;;;;;;5019194;28;21183;-68
2023/01/04 04:10:40;;;;;;;18.10;12.10;;;7.80;99.90;;;;;;5015738;28;20425;-67
2023/01/04 04:13:05;;;;;;;17.60;11.90;;;7.90;99.90;;;;;;5017960;28;20443;-67
2023/01/04 04:15:31;;;;;;;15.60;12.20;;;8.00;99.90;;;;;;5015837;28;21101;-68
2023/01/04 04:17:56;;;;;;;17.60;12.80;;;8.00;99.90;;;;;;5013578;28;20188;-68
2023/01/04 04:20:22;;;;;;;15.00;11.13;;;8.00;99.90;;;;;;5016910;28;20220;-66
2023/01/04 04:22:47;;;;;;;18.10;12.23;;;8.10;99.90;;;;;;5015974;28;20184;-67
2023/01/04 04:25:13;;;;;;;14.60;11.27;;;8.00;99.90;;;;;;5013201;28;20272;-68
2023/01/04 04:27:38;;;;;;;15.23;11.97;;;8.10;99.90;;;;;;5014337;28;20263;-68
2023/01/04 04:30:04;;;;;;;14.10;10.43;;;8.10;99.90;;;;;;5020754;28;20267;-68
2023/01/04 04:32:30;;;;;;;16.10;11.20;;;8.10;99.90;;;;;;5013158;28;20195;-68
2023/01/04 04:34:55;;;;;;;17.33;12.13;;;8.10;99.90;;;;;;5019273;28;20435;-67
2023/01/04 04:37:21;;;;;;;16.93;10.33;;;8.20;99.90;;;;;;5013368;28;20208;-69
2023/01/04 04:39:46;;;;;;;15.83;11.63;;;8.00;99.90;;;;;;5018338;28;20270;-68
2023/01/04 04:42:12;;;;;;;13.60;11.27;;;8.00;99.90;;;;;;5012204;28;20193;-68
2023/01/04 04:44:37;;;;;;;14.93;9.93;;;8.00;99.90;;;;;;5021324;28;20200;-69
2023/01/04 04:47:03;;;;;;;12.77;9.23;;;8.00;99.90;;;;;;5016273;28;20201;-68
2023/01/04 04:49:29;;;;;;;11.07;8.40;;;8.10;99.90;;;;;;5014332;28;20466;-68
2023/01/04 04:51:54;;;;;;;9.90;8.00;;;8.00;99.90;;;;;;5012645;28;20192;-68
2023/01/04 04:54:20;;;;;;;10.60;8.40;;;8.00;99.90;;;;;;5013744;28;20185;-68
2023/01/04 04:56:47;;;;;;;9.47;6.93;;;8.10;99.90;;;;;;5015752;28;20231;-68
2023/01/04 04:59:13;;;;;;;8.63;7.13;;;7.90;99.90;;;;;;5013364;28;20584;-68
2023/01/04 05:01:39;;;;;;;9.70;7.00;;;8.00;99.90;;;;;;5018551;28;20497;-68
2023/01/04 05:04:05;;;;;;;7.63;6.53;;;8.00;99.90;;;;;;5012684;28;20875;-68
2023/01/04 05:06:31;;;;;;;9.47;6.30;;;8.10;99.90;;;;;;5013716;28;20278;-68
2023/01/04 05:08:56;;;;;;;16.40;6.37;;;8.20;99.90;;;;;;5016578;28;20793;-68
2023/01/04 05:14:06;;;;;;;5.70;4.80;;;8.20;99.90;;;;;;5016499;28;20199;-67
2023/01/04 05:16:32;;;;;;;9.07;5.13;;;8.20;99.90;;;;;;5017591;28;20914;-67
2023/01/04 05:18:58;;;;;;;7.10;4.83;;;8.30;99.90;;;;;;5018067;28;20786;-67
2023/01/04 05:21:23;;;;;;;5.60;4.23;;;8.30;99.90;;;;;;5013901;28;20188;-68
2023/01/04 05:23:49;;;;;;;7.07;5.70;;;8.40;99.90;;;;;;5015813;28;20211;-68
2023/01/04 05:26:14;;;;;;;6.53;4.00;;;8.30;99.90;;;;;;5019210;28;20204;-68
2023/01/04 05:28:40;;;;;;;7.13;3.90;;;8.30;99.90;;;;;;5014811;28;20176;-68
2023/01/04 05:31:06;;;;;;;5.97;4.10;;;8.40;99.90;;;;;;5021166;28;20415;-67
2023/01/04 05:33:32;;;;;;;4.30;3.60;;;8.60;99.90;;;;;;5013062;28;20831;-67
2023/01/04 05:36:02;;;;;;;4.60;3.50;;;8.60;99.90;;;;;;5020717;28;20757;-67
2023/01/04 05:38:28;;;;;;;4.00;3.10;;;8.70;99.90;;;;;;5015213;28;20878;-67
2023/01/04 05:40:54;;;;;;;3.37;2.80;;;8.80;99.90;;;;;;5017789;28;20845;-67
2023/01/04 05:43:21;;;;;;;3.77;2.93;;;8.90;99.90;;;;;;5014611;28;20613;-68
2023/01/04 05:45:52;;;;;;;5.40;3.20;;;8.90;99.90;;;;;;5015139;28;20487;-67
2023/01/04 05:48:19;;;;;;;3.70;2.70;;;8.90;99.90;;;;;;5011864;28;20754;-68
2023/01/04 05:50:45;;;;;;;4.27;2.30;;;9.00;99.90;;;;;;5017163;28;20443;-67
2023/01/04 05:53:12;;;;;;;5.53;2.40;;;9.00;99.90;;;;;;5016630;28;20465;-68
2023/01/04 05:55:38;;;;;;;5.10;2.40;;;9.10;99.90;;;;;;5014384;28;20463;-67
2023/01/04 05:58:04;;;;;;;3.70;2.50;;;9.10;99.90;;;;;;5010925;28;20466;-68
2023/01/04 06:00:29;;;;;;;2.93;1.90;;;9.20;99.90;;;;;;5019645;28;20517;-68
2023/01/04 06:02:55;;;;;;;4.20;2.30;;;9.10;99.90;;;;;;5016830;28;20179;-67
2023/01/04 06:05:23;;;;;;;3.40;2.10;;;9.20;99.90;;;;;;5009603;28;20271;-67
2023/01/04 06:07:49;;;;;;;2.57;1.90;;;9.20;99.90;;;;;;5013937;28;20485;-68
2023/01/04 06:10:14;;;;;;;4.80;2.20;;;9.20;99.90;;;;;;5013221;28;21026;-68
2023/01/04 06:12:41;;;;;;;5.47;2.17;;;9.20;99.90;;;;;;5011230;28;20431;-67
2023/01/04 06:15:08;;;;;;;2.53;2.20;;;9.10;99.90;;;;;;5015275;28;20191;-68
2023/01/04 06:17:34;;;;;;;2.57;1.77;;;9.20;99.90;;;;;;5018298;28;20507;-67
2023/01/04 06:20:00;;;;;;;3.23;1.80;;;9.30;99.90;;;;;;5018801;28;20419;-67
2023/01/04 06:22:27;;;;;;;3.10;2.00;;;9.30;99.90;;;;;;5015318;28;20529;-68
2023/01/04 06:24:53;;;;;;;2.40;1.93;;;9.40;99.90;;;;;;5014783;28;20474;-67
2023/01/04 06:27:19;;;;;;;3.60;2.03;;;9.40;99.90;;;;;;5013809;28;21686;-68
2023/01/04 06:29:45;;;;;;;4.03;1.80;;;9.30;99.90;;;;;;5015418;28;20554;-68
2023/01/04 06:32:10;;;;;;;5.40;2.10;;;9.40;99.90;;;;;;5013539;28;20434;-67
2023/01/04 06:34:36;;;;;;;3.43;1.70;;;9.30;99.90;;;;;;5012809;28;20877;-67
2023/01/04 06:37:02;;;;;;;2.80;1.80;;;9.30;99.90;;;;;;5015837;28;20196;-68
2023/01/04 06:39:28;;;;;;;3.20;2.17;;;9.30;99.90;;;;;;5017339;28;20824;-68
2023/01/04 06:41:53;;;;;;;2.40;1.80;;;9.30;99.90;;;;;;5014245;28;20861;-68
2023/01/04 06:44:19;;;;;;;2.33;1.60;;;9.40;99.90;;;;;;5016864;28;20220;-68
2023/01/04 06:46:44;;;;;;;3.93;1.47;;;9.40;99.90;;;;;;5015982;28;20249;-68
2023/01/04 06:49:10;;;;;;;2.80;1.90;;;9.50;99.90;;;;;;5014149;28;20307;-68
2023/01/04 06:51:35;;;;;;;3.50;1.77;;;9.50;99.90;;;;;;5012066;28;20196;-68
2023/01/04 06:54:01;;;;;;;3.00;1.93;;;9.50;99.90;;;;;;5015243;28;20395;-68
2023/01/04 06:56:27;;;;;;;3.03;1.53;;;9.50;99.90;;;;;;5017579;28;20211;-68
2023/01/04 06:58:52;;;;;;;2.53;1.80;;;9.40;99.90;;;;;;5013707;28;20195;-67
2023/01/04 07:01:18;;;;;;;2.57;1.60;;;9.50;99.90;;;;;;5012402;28;20197;-68
2023/01/04 07:03:43;;;;;;;2.20;1.70;;;9.50;99.90;;;;;;5013468;28;20212;-67
2023/01/04 07:06:09;;;;;;;2.17;1.40;;;9.50;99.90;;;;;;5011407;28;20227;-67
2023/01/04 07:08:35;;;;;;;4.07;2.00;;;9.50;99.90;;;;;;5017324;28;20260;-67
2023/01/04 07:11:01;;;;;;;3.03;1.70;;;9.60;99.90;;;;;;5015678;28;20395;-67
2023/01/04 07:13:27;;;;;;;2.40;1.67;;;9.70;99.90;;;;;;5023234;28;20501;-69
2023/01/04 07:15:52;;;;;;;2.77;1.70;;;9.70;99.90;;;;;;5023510;28;20462;-69
2023/01/04 07:18:18;;;;;;;3.93;2.17;;;9.70;99.90;;;;;;5020060;28;20210;-69
2023/01/04 07:20:44;;;;;;;2.00;1.40;;;9.70;99.90;;;;;;5022057;28;20368;-69
2023/01/04 07:23:09;;;;;;;2.47;1.60;;;9.70;99.90;;;;;;5023512;28;20430;-70
2023/01/04 07:25:35;;;;;;;2.50;1.67;;;9.80;99.90;;;;;;5018526;28;20239;-69
2023/01/04 07:28:00;;;;;;;2.93;1.63;;;9.80;99.90;;;;;;5019823;28;20238;-70
2023/01/04 07:30:26;;;;;;;4.47;1.80;;;9.80;99.90;;;;;;5019289;28;20205;-70
2023/01/04 07:32:53;;;;;;;4.80;1.60;;;9.70;99.90;;;;;;5016819;28;20209;-69
2023/01/04 07:35:19;;;;;;;3.53;1.50;;;9.70;99.90;;;;;;5019107;28;20187;-68
2023/01/04 07:37:45;;;;;;;5.07;1.70;;;9.80;99.90;;;;;;5018418;28;21487;-67
2023/01/04 07:40:11;;;;;;;3.93;1.80;;;9.80;99.90;;;;;;5020203;28;20526;-66
2023/01/04 07:42:36;;;;;;;3.40;1.67;;;9.80;99.90;;;;;;5026508;28;20188;-67
2023/01/04 07:45:03;;;;;;;3.00;1.60;;;9.80;99.90;;;;;;5020876;28;20193;-66
2023/01/04 07:47:29;;;;;;;1.70;1.20;;;9.80;99.90;;;;;;5019483;28;20562;-66
2023/01/04 07:49:55;;;;;;;2.80;1.37;;;9.80;99.90;;;;;;5019578;28;20538;-66
2023/01/04 07:52:21;;;;;;;2.13;1.43;;;9.80;99.90;;;;;;5024397;28;20189;-66
2023/01/04 07:54:46;;;;;;;2.07;1.37;;;9.70;99.90;;;;;;5017592;28;20200;-67
2023/01/04 07:57:12;;;;;;;2.70;1.40;;;9.70;99.90;;;;;;5021425;28;20439;-67
2023/01/04 07:59:38;;;;;;;2.23;1.63;;;9.80;99.90;;;;;;5016347;28;20213;-66
2023/01/04 08:02:04;;;;;;;3.20;1.40;;;9.80;99.90;;;;;;5024259;28;20709;-65
2023/01/04 08:04:29;;;;;;;4.13;1.67;;;9.80;99.90;;;;;;5021009;28;20216;-66
2023/01/04 08:06:55;;;;;;;4.60;1.93;;;9.80;99.90;;;;;;5024461;28;20442;-67
2023/01/04 08:09:20;;;;;;;2.40;1.30;;;9.80;99.90;;;;;;5023381;28;20177;-67
2023/01/04 08:11:46;;;;;;;3.40;1.60;;;9.70;99.90;;;;;;5022379;28;20183;-67
2023/01/04 08:14:12;;;;;;;3.40;1.30;;;9.80;99.90;;;;;;5026086;28;20190;-67
2023/01/04 08:16:40;;;;;;;3.10;1.50;;;9.80;99.90;;;;;;5022671;28;20993;-66
2023/01/04 08:19:19;;;;;;;2.70;1.30;;;9.70;99.90;;;;;;5019669;28;20865;-67
2023/01/04 08:21:45;;;;;;;2.80;1.40;;;9.80;99.90;;;;;;5021296;28;20426;-66
2023/01/04 08:24:17;;;;;;;2.67;1.67;;;9.80;99.90;;;;;;5017434;28;20918;-68
2023/01/04 08:26:43;;;;;;;2.67;1.30;;;9.80;99.90;;;;;;5021170;28;20846;-67
2023/01/04 08:29:09;;;;;;;2.70;1.30;;;9.80;99.90;;;;;;5015617;28;20802;-66
2023/01/04 08:31:35;;;;;;;2.70;1.70;;;9.90;99.90;;;;;;5019069;28;20427;-65
2023/01/04 08:34:03;;;;;;;2.93;1.43;;;9.90;99.90;;;;;;5015905;28;20448;-65
2023/01/04 08:36:31;;;;;;;11.60;1.93;;;9.90;99.90;;;;;;5014090;28;20208;-65
2023/01/04 08:39:04;;;;;;;2.33;1.20;;;10.00;99.90;;;;;;5016176;28;20447;-65
2023/01/04 08:41:32;;;;;;;3.57;1.43;;;10.00;99.90;;;;;;5019656;28;20448;-65
2023/01/04 08:43:58;;;;;;;2.10;1.30;;;10.10;99.90;;;;;;5018232;28;20458;-65
2023/01/04 08:46:24;;;;;;;3.40;1.67;;;10.10;99.90;;;;;;5017340;28;20509;-65
2023/01/04 08:48:51;;;;;;;3.57;1.60;;;10.10;99.90;;;;;;5022068;28;20299;-66
2023/01/04 08:51:16;;;;;;;2.00;1.40;;;10.10;99.90;;;;;;5017671;28;20600;-67
2023/01/04 08:53:43;;;;;;;2.23;1.40;;;10.20;99.90;;;;;;5024777;28;20453;-64
2023/01/04 08:56:09;;;;;;;1.60;1.20;;;10.20;99.90;;;;;;5022126;28;20270;-66
2023/01/04 08:58:36;;;;;;;3.17;1.77;;;10.10;99.90;;;;;;5020311;28;20431;-67
2023/01/04 09:01:07;;;;;;;1.77;1.40;;;10.20;99.90;;;;;;5021352;28;20438;-67
2023/01/04 09:03:33;;;;;;;3.07;1.30;;;10.30;99.90;;;;;;5016647;28;20570;-66
2023/01/04 09:06:08;;;;;;;3.70;1.33;;;10.20;99.90;;;;;;5012426;28;20475;-67
2023/01/04 09:08:36;;;;;;;2.23;1.30;;;10.30;99.90;;;;;;5016581;28;20430;-67
2023/01/04 09:11:07;;;;;;;2.07;1.40;;;10.30;99.90;;;;;;5013528;28;20443;-67
2023/01/04 09:13:36;;;;;;;2.10;1.60;;;10.30;99.90;;;;;;5017713;28;20439;-67
2023/01/04 09:16:03;;;;;;;1.63;1.30;;;10.40;99.90;;;;;;5016167;28;20493;-67
2023/01/04 09:18:29;;;;;;;2.83;1.33;;;10.40;99.90;;;;;;5016575;28;20426;-67
2023/01/04 09:20:55;;;;;;;2.63;1.50;;;10.40;99.90;;;;;;5015994;28;20447;-68
2023/01/04 09:23:21;;;;;;;1.93;1.40;;;10.40;99.90;;;;;;5015859;28;20459;-67
2023/01/04 09:25:46;;;;;;;2.87;1.70;;;10.40;99.90;;;;;;5017377;28;20545;-67
2023/01/04 09:28:12;;;;;;;2.53;1.50;;;10.40;99.90;;;;;;5016675;28;20542;-68
2023/01/04 09:30:37;;;;;;;2.33;1.20;;;10.50;99.90;;;;;;5015671;28;20243;-68
2023/01/04 09:33:03;;;;;;;2.60;1.73;;;10.50;99.90;;;;;;5016886;28;20183;-67
2023/01/04 09:35:29;;;;;;;4.20;1.60;;;10.50;99.90;;;;;;5014634;28;20761;-67
2023/01/04 09:37:55;;;;;;;2.53;1.47;;;10.50;99.90;;;;;;5015409;28;20219;-67
2023/01/04 09:40:27;;;;;;;3.00;1.47;;;10.50;99.90;;;;;;5017001;28;20891;-68
2023/01/04 09:42:54;;;;;;;6.90;2.77;;;10.50;99.90;;;;;;5018563;28;20438;-66
2023/01/04 09:45:23;;;;;;;4.80;2.00;;;10.50;99.90;;;;;;5021802;28;20481;-67
2023/01/04 09:48:03;;;;;;;2.40;1.47;;;10.50;99.90;;;;;;5014994;28;20447;-68
2023/01/04 09:51:05;;;;;;;2.43;1.63;;;10.50;99.90;;;;;;5018242;28;20808;-66
2023/01/04 09:53:41;;;;;;;3.10;1.70;;;10.60;99.90;;;;;;5014503;28;20892;-70
2023/01/04 09:56:27;;;;;;;2.20;1.60;;;10.50;99.90;;;;;;5013448;28;20657;-67
2023/01/04 09:58:53;;;;;;;6.23;1.60;;;10.50;99.90;;;;;;5017980;28;20445;-68
2023/01/04 10:01:31;;;;;;;2.10;1.47;;;10.50;99.90;;;;;;5017230;28;20435;-69
2023/01/04 10:04:25;;;;;;;6.30;1.83;;;10.60;99.90;;;;;;5018528;28;20887;-69
2023/01/04 10:06:52;;;;;;;3.33;1.60;;;10.60;99.90;;;;;;5018359;28;20459;-68
2023/01/04 10:09:17;;;;;;;4.57;1.60;;;10.70;99.90;;;;;;5015530;28;20909;-69
2023/01/04 10:12:00;;;;;;;2.43;1.37;;;10.70;99.90;;;;;;5019348;28;20420;-66
2023/01/04 10:14:51;;;;;;;6.13;1.53;;;10.70;99.90;;;;;;5018126;28;20180;-66
2023/01/04 10:17:53;;;;;;;7.00;1.60;;;10.70;99.90;;;;;;5012632;28;20577;-69
2023/01/04 10:20:47;;;;;;;2.53;1.60;;;10.80;99.90;;;;;;5011428;28;20455;-69
2023/01/04 10:23:51;;;;;;;4.73;1.77;;;10.80;99.90;;;;;;5015815;28;20489;-68
2023/01/04 10:26:32;;;;;;;3.37;1.57;;;10.90;99.90;;;;;;5010369;28;20460;-67
2023/01/04 10:29:16;;;;;;;2.10;1.40;;;10.90;99.90;;;;;;5016080;28;20438;-67
2023/01/04 10:31:45;;;;;;;2.70;1.50;;;10.90;99.90;;;;;;5015414;28;20801;-66
2023/01/04 10:34:22;;;;;;;2.23;1.50;;;10.90;99.90;;;;;;5015634;28;20435;-67
2023/01/04 10:36:51;;;;;;;2.30;1.77;;;10.90;99.90;;;;;;5013380;28;20451;-66
2023/01/04 10:39:20;;;;;;;4.07;1.63;;;10.90;99.90;;;;;;5012282;28;20904;-67
2023/01/04 10:41:56;;;;;;;3.20;1.63;;;10.90;99.90;;;;;;5010207;28;20799;-67
2023/01/04 10:44:37;;;;;;;4.90;1.50;;;10.90;99.90;;;;;;5015617;28;20519;-66
2023/01/04 10:47:26;;;;;;;2.10;1.20;;;11.00;99.90;;;;;;5006940;28;20501;-65
2023/01/04 10:49:57;;;;;;;2.73;1.70;;;11.00;99.90;;;;;;5011225;28;20791;-66
2023/01/04 10:52:36;;;;;;;2.83;1.67;;;11.00;99.90;;;;;;5016134;28;20882;-66
2023/01/04 10:55:30;;;;;;;3.60;1.60;;;11.00;99.90;;;;;;5014684;28;20450;-68
2023/01/04 10:58:09;;;;;;;3.07;1.40;;;11.10;99.90;;;;;;5014602;28;20414;-67
2023/01/04 11:00:46;;;;;;;3.63;1.60;;;11.00;99.90;;;;;;5013486;28;20525;-67
2023/01/04 11:03:21;;;;;;;2.17;1.50;;;11.10;99.90;;;;;;5011149;28;20446;-68
2023/01/04 11:05:58;;;;;;;1.90;1.47;;;11.10;99.90;;;;;;5016557;28;20542;-66
2023/01/04 11:08:27;;;;;;;2.30;1.83;;;11.20;99.90;;;;;;5012424;28;20430;-66
2023/01/04 11:10:59;;;;;;;7.90;1.80;;;11.20;99.90;;;;;;5009402;28;20427;-66
2023/01/04 11:13:25;;;;;;;4.80;1.70;;;11.20;99.90;;;;;;5009747;28;21015;-66
2023/01/04 11:15:51;;;;;;;2.30;1.30;;;11.20;99.90;;;;;;5014028;28;20561;-66
2023/01/04 11:18:17;;;;;;;2.63;1.70;;;11.10;99.90;;;;;;5018665;28;20539;-67
2023/01/04 11:20:44;;;;;;;2.10;1.50;;;11.10;99.90;;;;;;5010302;28;20443;-68
2023/01/04 11:23:15;;;;;;;2.63;1.63;;;11.10;99.90;;;;;;5017081;28;20459;-68
2023/01/04 11:25:48;;;;;;;2.30;1.60;;;11.20;99.90;;;;;;5016090;28;20455;-65
2023/01/04 11:28:20;;;;;;;2.40;1.50;;;11.20;99.90;;;;;;5012048;28;20948;-66
2023/01/04 11:31:00;;;;;;;2.30;1.50;;;11.20;99.90;;;;;;5014214;28;20442;-66
2023/01/04 11:33:26;;;;;;;2.83;1.73;;;11.10;99.90;;;;;;5013780;28;20962;-66
2023/01/04 11:35:58;;;;;;;2.00;1.37;;;11.10;99.90;;;;;;5010777;28;20508;-66
2023/01/04 11:38:28;;;;;;;2.10;1.40;;;11.10;99.90;;;;;;5010734;28;20450;-66
2023/01/04 11:41:05;;;;;;;3.40;2.00;;;11.20;99.90;;;;;;5015172;28;20426;-66
2023/01/04 11:43:36;;;;;;;2.80;1.70;;;11.30;99.90;;;;;;5011679;28;20604;-67
2023/01/04 11:46:16;;;;;;;1.83;1.23;;;11.20;99.90;;;;;;5017957;28;20443;-67
2023/01/04 11:48:44;;;;;;;1.70;1.27;;;11.30;99.90;;;;;;5013808;28;20435;-68
2023/01/04 11:51:39;;;;;;;1.70;1.27;;;11.20;99.90;;;;;;5017713;28;20418;-66
2023/01/04 11:54:14;;;;;;;2.47;1.50;;;11.20;99.90;;;;;;5015957;28;20474;-67
2023/01/04 11:57:00;;;;;;;3.03;1.97;;;11.30;99.90;;;;;;5016607;28;20597;-68
2023/01/04 11:59:26;;;;;;;2.70;1.70;;;11.30;99.90;;;;;;5018346;28;20519;-66
2023/01/04 12:02:23;;;;;;;3.33;1.80;;;11.30;99.90;;;;;;5018768;28;20443;-66
2023/01/04 12:04:51;;;;;;;3.20;1.67;;;11.30;99.90;;;;;;5021134;28;20589;-67
2023/01/04 12:07:32;;;;;;;4.63;2.27;;;11.30;99.90;;;;;;5021156;28;20466;-68
2023/01/04 12:10:01;;;;;;;2.80;1.50;;;11.20;99.90;;;;;;5016670;28;20435;-67
2023/01/04 12:12:30;;;;;;;4.13;1.83;;;11.30;99.90;;;;;;5005863;28;20538;-66
2023/01/04 12:14:59;;;;;;;2.47;1.57;;;11.30;99.90;;;;;;5015260;28;20435;-66
2023/01/04 12:17:28;;;;;;;2.40;1.47;;;11.30;99.90;;;;;;5018710;28;20482;-67
2023/01/04 12:19:55;;;;;;;2.23;1.47;;;11.30;99.90;;;;;;5011254;28;20423;-66
2023/01/04 12:22:32;;;;;;;3.07;1.30;;;11.30;99.90;;;;;;5013299;28;20478;-67
2023/01/04 12:25:00;;;;;;;3.03;2.00;;;11.30;99.90;;;;;;5011667;28;20830;-68
2023/01/04 12:27:26;;;;;;;1.90;1.50;;;11.30;99.90;;;;;;5015917;28;20434;-68
2023/01/04 12:29:55;;;;;;;2.07;1.50;;;11.40;99.90;;;;;;5013286;28;20966;-69
2023/01/04 12:32:21;;;;;;;2.40;1.47;;;11.40;99.90;;;;;;5016641;28;22175;-70
2023/01/04 12:34:47;;;;;;;3.17;1.60;;;11.50;99.90;;;;;;5017192;28;20440;-69
2023/01/04 12:37:41;;;;;;;3.93;2.10;;;11.40;99.90;;;;;;5014771;28;20234;-67
2023/01/04 12:40:44;;;;;;;2.67;2.13;;;11.40;99.90;;;;;;5018855;28;20185;-67
2023/01/04 12:43:15;;;;;;;3.20;1.57;;;11.40;99.90;;;;;;5015857;28;20433;-67
2023/01/04 12:45:45;;;;;;;4.10;1.60;;;11.40;99.90;;;;;;5018440;28;20820;-67
2023/01/04 12:51:21;;;;;;;2.20;1.50;;;11.50;99.90;;;;;;5019912;28;20528;-69
2023/01/04 12:54:01;;;;;;;1.93;1.50;;;11.50;99.90;;;;;;5010390;28;20435;-68
2023/01/04 12:57:05;;;;;;;2.20;1.50;;;11.40;99.90;;;;;;5015645;28;20569;-67
2023/01/04 12:59:36;;;;;;;2.40;1.50;;;11.50;99.90;;;;;;5015067;28;20478;-68
2023/01/04 13:02:28;;;;;;;2.57;1.50;;;11.40;99.90;;;;;;5017586;28;20878;-68
2023/01/04 13:04:57;;;;;;;2.27;1.53;;;11.50;99.90;;;;;;5011376;28;21063;-67
2023/01/04 13:07:39;;;;;;;2.17;1.40;;;11.50;99.90;;;;;;5017564;28;20451;-68
2023/01/04 13:10:17;;;;;;;4.03;1.57;;;11.50;99.90;;;;;;5012718;28;20517;-68
2023/01/04 13:13:04;;;;;;;2.03;1.40;;;11.60;99.90;;;;;;5018773;28;20431;-68
2023/01/04 13:15:39;;;;;;;2.00;1.43;;;11.60;99.90;;;;;;5015399;28;20462;-67
2023/01/04 13:18:31;;;;;;;2.87;1.70;;;11.60;99.90;;;;;;5018058;28;20480;-66
2023/01/04 13:20:57;;;;;;;4.00;1.70;;;11.60;99.90;;;;;;5016981;28;20444;-68
2023/01/04 13:23:25;;;;;;;3.90;1.80;;;11.60;99.90;;;;;;5022115;28;20829;-68
2023/01/04 13:25:50;;;;;;;1.80;1.30;;;11.60;99.90;;;;;;5019576;28;20251;-67
2023/01/04 13:28:18;;;;;;;3.20;2.03;;;11.70;99.90;;;;;;5014571;28;20486;-69
2023/01/04 13:30:45;;;;;;;4.07;1.70;;;11.70;99.90;;;;;;5017029;28;20528;-70
2023/01/04 13:33:19;;;;;;;3.10;1.50;;;11.70;99.90;;;;;;5015865;28;20921;-70
2023/01/04 13:36:00;;;;;;;4.67;1.60;;;11.70;99.90;;;;;;5016005;28;20466;-69
2023/01/04 13:38:26;;;;;;;2.93;1.70;;;11.70;99.90;;;;;;5013343;28;21179;-70
2023/01/04 13:40:52;;;;;;;1.90;1.40;;;11.70;99.90;;;;;;5017765;28;20543;-70
2023/01/04 13:43:41;;;;;;;2.10;1.50;;;11.60;99.90;;;;;;5015135;28;20492;-71
2023/01/04 13:46:20;;;;;;;4.53;1.87;;;11.60;99.90;;;;;;5015188;28;20586;-69
2023/01/04 13:48:49;;;;;;;3.83;1.70;;;11.60;99.90;;;;;;5015778;28;20435;-69
2023/01/04 13:51:14;;;;;;;4.40;2.07;;;11.70;99.90;;;;;;5018170;28;20438;-70
2023/01/04 13:53:40;;;;;;;2.13;1.70;;;11.70;99.90;;;;;;5015953;28;20834;-68
2023/01/04 13:56:23;;;;;;;2.57;1.70;;;11.70;99.90;;;;;;5013539;28;20205;-69